Genius — 2CPA7 — position and weather

sailwx.info

Track history (hours):
 
Tides and Currents Weather Stations Pressure Air Temp Water Temp Dewpoint Dewpoint Depression Visibility Wind Speed Wind Dir Waves Ship Positions

Genius

Last reported at 2015-Mar-28 19:32 UTC. Time now 2015-Mar-29 09:19 UTC.
Position N 01°17' E 104°20'.

Length 288 m; draft 8.3 m.

Type: Cargo ship. MMSI: 235074615.

Date/timePositionNaut miles runAvg speedWind from/ knotsBaromVisibWave heightAir tempDewpointWater temp
2015-Mar-28 19:32N 01°17' E 104°20'1010.7
2015-Mar-28 18:33N 01°15' E 104°10'1110.5
2015-Mar-28 17:33N 01°16' E 103°59'3 2.8
2015-Mar-28 16:20N 01°17' E 103°56'0 0.0
2015-Mar-28 15:20N 01°17' E 103°56'0 0.0
2015-Mar-28 14:32N 01°17' E 103°56'0 0.0
2015-Mar-28 13:33N 01°17' E 103°56'0 0.0
2015-Mar-28 12:33N 01°17' E 103°56'0 0.0
2015-Mar-28 11:34N 01°17' E 103°56'0 0.0
2015-Mar-28 10:33N 01°17' E 103°56'0 0.0
2015-Mar-28 09:33N 01°17' E 103°56'0 0.0
2015-Mar-28 08:32N 01°17' E 103°56'0 0.0
2015-Mar-28 07:32N 01°17' E 103°56'0 0.0
2015-Mar-28 06:33N 01°17' E 103°56'0 0.1
2015-Mar-28 05:32N 01°17' E 103°56'0 0.1
2015-Mar-28 04:32N 01°17' E 103°56'0 0.1
2015-Mar-28 03:33N 01°17' E 103°56'0 0.1
2015-Mar-28 02:34N 01°17' E 103°56'0 0.1
2015-Mar-28 01:32N 01°17' E 103°56'3 2.7
2015-Mar-28 00:33N 01°16' E 103°59'3 2.6
2015-Mar-27 23:32N 01°16' E 104°01'9 9.1
2015-Mar-27 22:33N 01°17' E 104°10'12 8.8
2015-Mar-27 21:12N 01°20' E 104°22'  
Track history (hours):
 
Tides and Currents Weather Stations Pressure Air Temp Water Temp Dewpoint Dewpoint Depression Visibility Wind Speed Wind Dir Waves Ship Positions

Genius

Last reported at 2015-Mar-28 19:32 UTC. Time now 2015-Mar-29 09:19 UTC.
Position N 01°17' E 104°20'.

Length 288 m; draft 8.3 m.

Type: Cargo ship. MMSI: 235074615.

Date/timePositionNaut miles runAvg speedWind from/ knotsBaromVisibWave heightAir tempDewpointWater temp
2015-Mar-28 19:32N 01°17' E 104°20'1010.7
2015-Mar-28 18:33N 01°15' E 104°10'1110.5
2015-Mar-28 17:33N 01°16' E 103°59'3 2.8
2015-Mar-28 16:20N 01°17' E 103°56'0 0.0
2015-Mar-28 15:20N 01°17' E 103°56'0 0.0
2015-Mar-28 14:32N 01°17' E 103°56'0 0.0
2015-Mar-28 13:33N 01°17' E 103°56'0 0.0
2015-Mar-28 12:33N 01°17' E 103°56'0 0.0
2015-Mar-28 11:34N 01°17' E 103°56'0 0.0
2015-Mar-28 10:33N 01°17' E 103°56'0 0.0
2015-Mar-28 09:33N 01°17' E 103°56'0 0.0
2015-Mar-28 08:32N 01°17' E 103°56'0 0.0
2015-Mar-28 07:32N 01°17' E 103°56'0 0.0
2015-Mar-28 06:33N 01°17' E 103°56'0 0.1
2015-Mar-28 05:32N 01°17' E 103°56'0 0.1
2015-Mar-28 04:32N 01°17' E 103°56'0 0.1
2015-Mar-28 03:33N 01°17' E 103°56'0 0.1
2015-Mar-28 02:34N 01°17' E 103°56'0 0.1
2015-Mar-28 01:32N 01°17' E 103°56'3 2.7
2015-Mar-28 00:33N 01°16' E 103°59'3 2.6
2015-Mar-27 23:32N 01°16' E 104°01'9 9.1
2015-Mar-27 22:33N 01°17' E 104°10'12 8.8
2015-Mar-27 21:12N 01°20' E 104°22'  

Dump ship's entire track history